Time;durP1;ratioP1;P1;durP2;ratioP2;P2;SDS_P1;SDS_P2;PMS_P1;PMS_P2;Temp;Humidity;BMP_temperature;BMP_pressure;BME280_temperature;BME280_humidity;BME280_pressure;Samples;Min_cycle;Max_cycle;Signal;HPM_P1;HPM_P2
2022/03/07 00:00:01;;;;;;;7.43;6.27;;;;;;;0.38;50.26;100427.22;1710673;82;21537;-67
2022/03/07 00:02:32;;;;;;;9.43;8.10;;;;;;;0.36;50.34;100429.12;1710333;83;21045;-66
2022/03/07 00:05:00;;;;;;;11.77;9.57;;;;;;;0.33;50.38;100420.18;1709870;83;21042;-67
2022/03/07 00:07:27;;;;;;;13.45;10.43;;;;;;;0.28;50.53;100424.11;1710739;82;21022;-64
2022/03/07 00:09:54;;;;;;;11.33;9.20;;;;;;;0.25;50.66;100419.13;1710622;82;21074;-68
2022/03/07 00:12:24;;;;;;;16.57;12.43;;;;;;;0.25;50.82;100419.95;1700851;83;22204;-65
2022/03/07 00:14:52;;;;;;;14.93;11.50;;;;;;;0.22;50.94;100411.01;1692950;83;21053;-67
2022/03/07 00:17:19;;;;;;;16.50;10.23;;;;;;;0.22;51.08;100412.80;1692781;83;21054;-66
2022/03/07 00:19:47;;;;;;;12.50;9.50;;;;;;;0.22;51.60;100410.18;1693617;84;21066;-64
2022/03/07 00:22:16;;;;;;;12.40;10.87;;;;;;;0.17;51.71;100404.83;1703614;83;21053;-65
2022/03/07 00:24:44;;;;;;;15.70;10.87;;;;;;;0.14;51.66;100398.50;1693284;83;21065;-65
2022/03/07 00:27:11;;;;;;;15.50;12.73;;;;;;;0.14;51.80;100394.56;1693991;83;21036;-65
2022/03/07 00:29:37;;;;;;;14.53;11.73;;;;;;;0.17;51.80;100391.72;1693964;83;21504;-66
2022/03/07 00:32:08;;;;;;;17.63;13.30;;;;;;;0.16;51.65;100392.66;1699232;83;21035;-66
2022/03/07 00:34:35;;;;;;;19.67;13.77;;;;;;;0.17;51.75;100389.55;1707524;83;21081;-67
2022/03/07 00:37:04;;;;;;;12.03;9.63;;;;;;;0.19;51.81;100380.63;1691329;83;21089;-68
2022/03/07 00:39:31;;;;;;;;;;;;;;;0.26;51.83;100378.83;1673660;83;21100;-66
2022/03/07 00:41:58;;;;;;;6.92;6.00;;;;;;;0.30;51.79;100379.80;1693965;84;20137;-64
2022/03/07 00:44:25;;;;;;;7.17;4.70;;;;;;;0.27;51.82;100368.23;1661130;83;21536;-66
2022/03/07 00:46:53;;;;;;;3.83;3.43;;;;;;;0.30;51.96;100370.62;1666413;85;21622;-66
2022/03/07 00:49:19;;;;;;;5.10;3.47;;;;;;;0.28;51.81;100367.27;1668581;85;21106;-64
2022/03/07 00:51:47;;;;;;;4.13;3.73;;;;;;;0.29;51.81;100366.80;1672131;85;21071;-65
2022/03/07 00:54:16;;;;;;;4.53;3.90;;;;;;;0.29;51.79;100367.62;1665472;85;21590;-65
2022/03/07 00:56:44;;;;;;;4.33;3.93;;;;;;;0.30;51.83;100369.77;1679894;84;21035;-65
2022/03/07 00:59:11;;;;;;;2.53;2.33;;;;;;;0.34;51.86;100360.70;1682602;84;21002;-64
2022/03/07 01:01:38;;;;;;;;;;;;;;;0.37;51.89;100357.84;1645008;84;21218;-66
2022/03/07 01:04:05;;;;;;;6.33;4.55;;;;;;;0.39;51.59;100352.82;1625147;86;20211;-65
2022/03/07 01:06:33;;;;;;;4.73;4.33;;;;;;;0.34;51.56;100351.06;1681783;84;21051;-65
2022/03/07 01:08:59;;;;;;;6.27;5.43;;;;;;;0.39;51.31;100344.12;1682180;84;21257;-65
2022/03/07 01:11:26;;;;;;;7.25;6.08;;;;;;;0.43;51.16;100338.98;1687790;84;21286;-64
2022/03/07 01:13:53;;;;;;;8.63;7.05;;;;;;;0.49;51.15;100341.14;1698939;84;21053;-64
2022/03/07 01:16:20;;;;;;;11.37;7.10;;;;;;;0.49;51.27;100337.66;1697174;84;21073;-65
2022/03/07 01:18:46;;;;;;;7.53;6.80;;;;;;;0.52;51.17;100334.32;1700631;84;21024;-64
2022/03/07 01:21:13;;;;;;;9.93;7.12;;;;;;;0.51;51.21;100326.56;1669367;84;21036;-65
2022/03/07 01:23:39;;;;;;;;;;;;;;;0.53;51.33;100327.31;1714304;82;21076;-64
2022/03/07 01:26:06;;;;;;;13.93;9.60;;;;;;;0.53;51.10;100320.75;1716447;82;20487;-64
2022/03/07 01:28:34;;;;;;;21.37;15.70;;;;;;;0.45;50.82;100318.72;1721531;82;21908;-64
2022/03/07 01:31:01;;;;;;;25.08;14.83;;;;;;;0.41;50.71;100321.23;1698559;82;21090;-64
2022/03/07 01:33:27;;;;;;;20.02;13.38;;;;;;;0.38;50.80;100319.70;1705385;82;21022;-65
2022/03/07 01:35:54;;;;;;;17.87;12.20;;;;;;;0.39;50.55;100312.66;1693261;83;21045;-65
2022/03/07 01:38:21;;;;;;;;;;;;;;;0.35;50.46;100307.31;1695962;83;21050;-64
2022/03/07 01:40:50;;;;;;;13.53;8.50;;;;;;;0.31;50.38;100305.91;1666004;85;20176;-70
2022/03/07 01:43:19;;;;;;;13.07;9.73;;;;;;;0.28;50.13;100308.75;1693575;84;21025;-68
2022/03/07 01:45:45;;;;;;;13.90;10.57;;;;;;;0.22;50.03;100311.87;1688211;84;21035;-65
2022/03/07 01:48:12;;;;;;;12.93;10.20;;;;;;;0.23;50.18;100309.14;1642468;86;21590;-66
2022/03/07 01:50:39;;;;;;;14.87;10.43;;;;;;;0.29;50.27;100305.19;1679892;84;21027;-67
2022/03/07 01:53:06;;;;;;;16.50;9.83;;;;;;;0.34;49.96;100303.87;1696136;84;21548;-64
2022/03/07 01:55:34;;;;;;;11.43;8.33;;;;;;;0.38;49.93;100303.97;1665666;84;21070;-64
2022/03/07 01:58:02;;;;;;;8.90;7.00;;;;;;;0.42;49.97;100304.56;1666926;84;20988;-68
2022/03/07 02:00:33;;;;;;;10.23;7.80;;;;;;;0.39;49.94;100301.69;1671655;83;21612;-67
2022/03/07 02:03:01;;;;;;;8.23;6.63;;;;;;;0.35;49.92;100298.14;1674237;85;21581;-64
2022/03/07 02:05:30;;;;;;;5.70;5.07;;;;;;;0.35;49.94;100307.31;1660159;84;21055;-64
2022/03/07 02:08:00;;;;;;;7.87;6.50;;;;;;;0.33;50.08;100298.25;1690827;84;21024;-66
2022/03/07 02:10:28;;;;;;;6.27;5.43;;;;;;;0.31;50.08;100296.23;1706928;83;21851;-71
2022/03/07 02:12:56;;;;;;;8.33;6.43;;;;;;;0.33;50.21;100296.12;1666184;84;20985;-66
2022/03/07 02:15:25;;;;;;;11.20;7.43;;;;;;;0.35;50.09;100292.41;1652458;85;21010;-65
2022/03/07 02:17:54;;;;;;;8.53;6.57;;;;;;;0.37;50.27;100281.80;1652460;85;21512;-64
2022/03/07 02:20:20;;;;;;;10.17;6.37;;;;;;;0.34;50.24;100272.86;1652900;85;21022;-63
2022/03/07 02:22:48;;;;;;;10.33;6.83;;;;;;;0.33;50.03;100277.28;1654181;85;21011;-64
2022/03/07 02:25:15;;;;;;;7.07;5.60;;;;;;;0.31;50.00;100279.68;1660471;86;21501;-67
2022/03/07 02:27:42;;;;;;;7.70;6.40;;;;;;;0.34;50.24;100272.86;1635040;88;21039;-65
2022/03/07 02:30:10;;;;;;;;;;;;;;;0.37;50.03;100268.69;1637724;87;21586;-72
2022/03/07 02:32:43;;;;;;;6.80;4.77;;;;;;;0.36;50.14;100270.98;1635006;88;20114;-64
2022/03/07 02:35:14;;;;;;;5.90;5.33;;;;;;;0.32;50.32;100268.22;1630886;86;22073;-66
2022/03/07 02:37:42;;;;;;;5.97;4.30;;;;;;;0.32;50.50;100266.45;1632705;86;21074;-65
2022/03/07 02:40:12;;;;;;;4.70;4.20;;;;;;;0.35;50.29;100270.61;1632385;86;21585;-71
2022/03/07 02:42:41;;;;;;;5.30;4.37;;;;;;;0.35;50.38;100257.50;1664211;84;21026;-65
2022/03/07 02:45:09;;;;;;;6.87;3.97;;;;;;;0.34;50.58;100261.06;1653015;84;21092;-73
2022/03/07 02:47:37;;;;;;;10.10;4.13;;;;;;;0.35;50.73;100260.12;1653720;86;21055;-65
2022/03/07 02:50:05;;;;;;;9.90;4.13;;;;;;;0.38;50.64;100252.02;1639228;86;21054;-64
2022/03/07 02:52:35;;;;;;;4.13;3.43;;;;;;;0.44;50.57;100250.68;1636045;86;21395;-64
2022/03/07 02:55:02;;;;;;;4.93;3.53;;;;;;;0.41;50.77;100251.75;1635936;86;21097;-63
2022/03/07 02:57:28;;;;;;;5.10;3.60;;;;;;;0.38;50.85;100254.64;1580423;89;21517;-70
2022/03/07 02:59:56;;;;;;;3.67;3.33;;;;;;;0.37;50.80;100251.16;1637841;86;21540;-66
2022/03/07 03:02:24;;;;;;;3.40;3.10;;;;;;;0.39;50.70;100252.35;1635424;85;21045;-64
2022/03/07 03:04:50;;;;;;;4.27;3.87;;;;;;;0.37;50.76;100241.16;1627045;87;21100;-65
2022/03/07 03:07:17;;;;;;;4.30;3.20;;;;;;;0.33;51.00;100242.37;1651207;85;21083;-65
2022/03/07 03:09:45;;;;;;;3.50;3.20;;;;;;;0.34;51.17;100238.31;1638087;87;21079;-64
2022/03/07 03:12:12;;;;;;;3.80;3.50;;;;;;;0.32;51.03;100242.86;1603003;88;21314;-71
2022/03/07 03:14:39;;;;;;;;;;;;;;;0.31;51.04;100232.00;1613838;87;21043;-65
2022/03/07 03:17:06;;;;;;;5.30;4.72;;;;;;;0.30;51.21;100238.67;1648921;87;20469;-66
2022/03/07 03:19:33;;;;;;;3.07;2.87;;;;;;;0.29;51.32;100236.54;1597222;88;21170;-66
2022/03/07 03:22:00;;;;;;;3.25;2.95;;;;;;;0.33;51.28;100238.44;1653113;85;21061;-66
2022/03/07 03:24:27;;;;;;;5.27;4.77;;;;;;;0.34;51.33;100234.39;1636410;86;21593;-66
2022/03/07 03:26:54;;;;;;;9.07;4.43;;;;;;;0.31;51.15;100233.80;1621656;86;21091;-65
2022/03/07 03:29:22;;;;;;;4.70;4.30;;;;;;;0.24;51.19;100233.94;1639577;86;21367;-66
2022/03/07 03:31:49;;;;;;;5.43;3.87;;;;;;;0.18;51.40;100225.60;1639026;86;21097;-72
2022/03/07 03:34:16;;;;;;;;;;;;;;;0.16;51.59;100231.45;1660169;84;21007;-64
2022/03/07 03:36:42;;;;;;;7.20;4.83;;;;;;;0.21;51.63;100226.30;1677425;84;20136;-70
2022/03/07 03:39:09;;;;;;;4.75;4.37;;;;;;;0.19;51.66;100221.22;1677285;84;21182;-73
2022/03/07 03:41:36;;;;;;;;;;;;;;;0.19;51.60;100220.73;1670610;84;21003;-67
2022/03/07 03:44:03;;;;;;;7.73;5.10;;;;;;;0.12;51.91;100222.17;1666141;85;20168;-69
2022/03/07 03:46:30;;;;;;;7.37;5.60;;;;;;;0.05;52.25;100221.48;1669835;85;21050;-65
2022/03/07 03:48:57;;;;;;;;;;;;;;;0.00;52.47;100211.39;1635270;86;21052;-68
2022/03/07 03:51:24;;;;;;;8.43;5.37;;;;;;;0.06;52.50;100214.81;1597321;88;20140;-66
2022/03/07 03:53:54;;;;;;;8.03;5.63;;;;;;;0.05;52.58;100208.38;1608116;88;21618;-65
2022/03/07 03:56:21;;;;;;;7.35;6.47;;;;;;;0.08;52.60;100201.11;1657749;84;21051;-65
2022/03/07 03:58:48;;;;;;;8.33;6.67;;;;;;;0.12;52.45;100199.89;1646202;86;22140;-66
2022/03/07 04:01:16;;;;;;;8.13;6.13;;;;;;;0.16;52.38;100199.17;1640649;86;21081;-64
2022/03/07 04:03:43;;;;;;;7.63;6.40;;;;;;;0.15;52.42;100190.94;1660238;86;21080;-64
2022/03/07 04:06:10;;;;;;;10.03;7.53;;;;;;;0.11;52.32;100197.39;1664958;86;21068;-73
2022/03/07 04:08:39;;;;;;;7.47;5.73;;;;;;;0.10;52.54;100189.19;1664978;85;20994;-67
2022/03/07 04:11:06;;;;;;;6.60;5.13;;;;;;;0.09;52.58;100192.27;1629316;86;21605;-64
2022/03/07 04:13:33;;;;;;;6.43;5.80;;;;;;;0.11;52.61;100189.05;1633794;86;21047;-66
2022/03/07 04:15:59;;;;;;;;;;;;;;;0.12;52.60;100192.52;1635116;86;21604;-65
2022/03/07 04:18:27;;;;;;;12.55;8.45;;;;;;;0.16;52.60;100193.93;1634363;86;20120;-64
2022/03/07 04:20:53;;;;;;;;;;;;;;;0.10;52.59;100188.70;1637152;86;21015;-65
2022/03/07 04:23:20;;;;;;;13.17;7.03;;;;;;;0.09;52.64;100185.72;1647023;86;20476;-66
2022/03/07 04:25:48;;;;;;;10.10;6.53;;;;;;;0.08;52.74;100184.07;1657917;85;21041;-65
2022/03/07 04:28:17;;;;;;;10.70;7.30;;;;;;;0.06;52.80;100182.05;1623354;87;21007;-66
2022/03/07 04:30:46;;;;;;;11.87;8.37;;;;;;;0.08;52.80;100180.14;1625191;88;21555;-65
2022/03/07 04:33:13;;;;;;;9.60;7.10;;;;;;;0.11;52.70;100179.05;1650810;85;21130;-65
2022/03/07 04:35:39;;;;;;;11.83;8.20;;;;;;;0.10;52.76;100172.98;1597316;88;21593;-65
2022/03/07 04:38:06;;;;;;;13.30;9.45;;;;;;;0.09;52.89;100165.23;1624073;87;21065;-64
2022/03/07 04:40:33;;;;;;;10.17;7.47;;;;;;;0.09;53.04;100162.62;1606014;88;21220;-64
2022/03/07 04:43:01;;;;;;;10.47;7.93;;;;;;;0.11;53.10;100157.59;1622887;87;21082;-64
2022/03/07 04:45:28;;;;;;;9.20;8.30;;;;;;;0.09;52.85;100152.95;1591383;88;21087;-65
2022/03/07 04:47:55;;;;;;;10.30;7.60;;;;;;;0.07;52.90;100155.36;1614437;87;21085;-64
2022/03/07 04:50:21;;;;;;;10.80;7.00;;;;;;;0.02;52.87;100156.20;1654951;86;21061;-65
2022/03/07 04:52:48;;;;;;;;;;;;;;;0.01;53.03;100152.76;1650077;86;21017;-65
2022/03/07 04:55:14;;;;;;;12.33;8.77;;;;;;;-0.01;53.12;100150.26;1639450;86;20132;-64
2022/03/07 04:57:43;;;;;;;;;;;;;;;-0.06;53.09;100148.97;1608027;89;21114;-65
2022/03/07 05:00:11;;;;;;;13.50;8.43;;;;;;;-0.10;53.29;100146.25;1579894;89;20255;-74
2022/03/07 05:02:38;;;;;;;10.97;8.57;;;;;;;-0.16;53.50;100146.75;1638085;86;21122;-65
2022/03/07 05:05:08;;;;;;;18.57;8.70;;;;;;;-0.11;53.62;100141.98;1638952;86;21097;-71
2022/03/07 05:07:36;;;;;;;9.63;8.43;;;;;;;-0.05;53.57;100140.16;1639021;86;21088;-65
2022/03/07 05:10:07;;;;;;;13.43;9.30;;;;;;;0.04;53.42;100147.28;1637716;86;21154;-65
2022/03/07 05:12:34;;;;;;;14.33;9.50;;;;;;;0.11;53.33;100144.48;1646683;85;21034;-65
2022/03/07 05:15:00;;;;;;;;;;;;;;;0.16;52.96;100140.20;1641390;86;21080;-64
2022/03/07 05:17:27;;;;;;;12.50;8.90;;;;;;;0.16;52.92;100131.02;1624291;87;20144;-71
2022/03/07 05:19:53;;;;;;;;;;;;;;;0.13;53.05;100126.02;1645966;86;21069;-64
2022/03/07 05:22:23;;;;;;;14.20;9.83;;;;;;;0.12;52.87;100133.55;1659253;85;20217;-63
2022/03/07 05:24:50;;;;;;;17.03;10.53;;;;;;;0.05;53.19;100127.96;1667978;85;21671;-64
2022/03/07 05:27:17;;;;;;;;;;;;;;;0.01;53.28;100130.97;1662058;84;21041;-64
2022/03/07 05:29:44;;;;;;;25.40;17.00;;;;;;;-0.02;53.41;100136.82;1679578;84;20395;-64
2022/03/07 05:32:11;;;;;;;25.90;18.17;;;;;;;-0.05;53.63;100134.44;1662911;84;21569;-64
2022/03/07 05:34:38;;;;;;;28.83;20.27;;;;;;;-0.05;53.63;100135.75;1678039;84;21038;-64
2022/03/07 05:37:09;;;;;;;34.53;19.37;;;;;;;0.02;53.67;100124.76;1668335;84;21065;-68
2022/03/07 05:39:36;;;;;;;20.43;14.53;;;;;;;0.06;53.54;100121.78;1676463;84;21109;-65
2022/03/07 05:42:04;;;;;;;19.23;14.00;;;;;;;0.09;53.34;100122.81;1672510;84;21119;-64
2022/03/07 05:44:33;;;;;;;20.23;13.30;;;;;;;0.15;53.21;100118.86;1666260;84;21061;-64
2022/03/07 05:47:00;;;;;;;18.73;13.77;;;;;;;0.23;53.22;100111.67;1697696;84;21158;-65
2022/03/07 05:49:26;;;;;;;;;;;;;;;0.32;53.19;100111.77;1689659;84;20971;-64
2022/03/07 05:51:53;;;;;;;22.50;12.23;;;;;;;0.38;52.96;100111.73;1688242;84;20127;-68
2022/03/07 05:54:21;;;;;;;23.30;12.30;;;;;;;0.36;52.88;100103.98;1670873;84;21076;-75
2022/03/07 05:56:48;;;;;;;9.57;8.60;;;;;;;0.43;52.90;100102.16;1665786;84;22194;-66
2022/03/07 05:59:14;;;;;;;12.55;9.30;;;;;;;0.46;52.82;100095.35;1646429;86;21054;-64
2022/03/07 06:01:41;;;;;;;11.03;8.13;;;;;;;0.51;52.60;100092.69;1666500;84;21005;-69
2022/03/07 06:04:08;;;;;;;10.20;7.87;;;;;;;0.53;52.13;100089.46;1666893;85;21085;-66
2022/03/07 06:06:36;;;;;;;10.93;7.27;;;;;;;0.55;52.07;100094.58;1666832;85;21522;-66
2022/03/07 06:09:03;;;;;;;10.65;8.80;;;;;;;0.55;52.15;100097.20;1657412;86;21114;-66
2022/03/07 06:11:30;;;;;;;9.67;8.67;;;;;;;0.57;51.90;100086.92;1617575;88;21038;-72
2022/03/07 06:13:57;;;;;;;13.10;8.43;;;;;;;0.60;51.95;100087.63;1630339;86;21059;-65
2022/03/07 06:16:24;;;;;;;11.73;7.77;;;;;;;0.60;51.86;100087.63;1633079;86;21066;-64
2022/03/07 06:18:53;;;;;;;10.30;7.27;;;;;;;0.62;51.92;100085.70;1633877;86;21070;-70
2022/03/07 06:21:20;;;;;;;13.57;7.40;;;;;;;0.64;51.95;100079.84;1654836;86;21031;-64
2022/03/07 06:23:46;;;;;;;;;;;;;;;0.72;51.88;100072.16;1618658;87;21064;-64
2022/03/07 06:26:14;;;;;;;8.20;6.57;;;;;;;0.77;51.68;100074.73;1606963;88;20502;-63
2022/03/07 06:28:41;;;;;;;7.70;6.97;;;;;;;0.73;51.62;100076.43;1633579;87;21067;-71
2022/03/07 06:31:08;;;;;;;9.50;5.80;;;;;;;0.74;51.87;100082.86;1654780;86;21143;-64
2022/03/07 06:33:35;;;;;;;6.72;5.97;;;;;;;0.78;51.76;100079.50;1635104;86;21108;-65
2022/03/07 06:36:06;;;;;;;7.55;6.35;;;;;;;0.81;51.50;100077.08;1612557;88;21162;-71
2022/03/07 06:38:34;;;;;;;9.23;5.80;;;;;;;0.78;51.37;100076.88;1690442;84;21019;-65
2022/03/07 06:41:01;;;;;;;6.30;5.70;;;;;;;0.71;51.59;100077.05;1634259;86;21520;-66
2022/03/07 06:43:27;;;;;;;10.67;6.60;;;;;;;0.67;51.59;100068.61;1623578;88;21076;-65
2022/03/07 06:45:54;;;;;;;8.83;7.00;;;;;;;0.66;51.76;100072.66;1670054;85;21504;-67
2022/03/07 06:48:21;;;;;;;6.87;5.83;;;;;;;0.67;51.75;100071.22;1634169;86;21078;-64
2022/03/07 06:50:48;;;;;;;;;;;;;;;0.72;51.78;100076.09;1634821;86;21015;-65
2022/03/07 06:53:14;;;;;;;8.37;6.90;;;;;;;0.76;51.76;100069.12;1639360;86;20143;-63
2022/03/07 06:55:41;;;;;;;;;;;;;;;0.76;51.84;100069.62;1610716;86;21068;-65
2022/03/07 06:58:08;;;;;;;10.47;7.23;;;;;;;0.83;51.77;100071.22;1606982;88;20183;-63
2022/03/07 07:00:35;;;;;;;8.93;6.67;;;;;;;0.83;51.82;100062.89;1627688;86;21532;-64
2022/03/07 07:03:03;;;;;;;7.60;5.97;;;;;;;0.90;51.73;100065.30;1655068;84;21058;-72
2022/03/07 07:05:29;;;;;;;;;;;;;;;0.96;51.74;100065.26;1671139;84;21159;-65
2022/03/07 07:08:01;;;;;;;13.03;9.83;;;;;;;0.99;51.38;100069.43;1676192;84;20135;-68
2022/03/07 07:10:30;;;;;;;8.73;7.87;;;;;;;0.93;51.27;100066.37;1634078;85;21152;-65
2022/03/07 07:12:56;;;;;;;;;;;;;;;0.89;51.54;100063.66;1643070;86;21062;-64
2022/03/07 07:15:25;;;;;;;10.67;7.50;;;;;;;0.92;51.55;100059.94;1610616;89;20140;-72
2022/03/07 07:17:51;;;;;;;12.50;9.00;;;;;;;0.93;51.64;100058.49;1608146;88;21090;-65
2022/03/07 07:20:18;;;;;;;12.47;8.43;;;;;;;0.95;51.53;100061.81;1633522;87;21015;-65
2022/03/07 07:22:44;;;;;;;10.38;8.38;;;;;;;1.02;51.46;100058.64;1647544;86;21072;-67
2022/03/07 07:25:11;;;;;;;10.50;8.10;;;;;;;1.14;51.29;100053.16;1623827;88;21068;-69
2022/03/07 07:27:38;;;;;;;;;;;;;;;1.14;51.29;100053.16;1657879;84;21061;-65
2022/03/07 07:30:09;;;;;;;16.00;9.87;;;;;;;1.16;51.07;100049.09;1686901;84;20430;-65
2022/03/07 07:32:38;;;;;;;14.97;10.30;;;;;;;1.15;51.21;100048.27;1665830;84;21090;-69
2022/03/07 07:35:08;;;;;;;14.47;10.40;;;;;;;1.20;51.12;100046.55;1693342;83;21300;-69
2022/03/07 07:37:35;;;;;;;11.43;8.77;;;;;;;1.27;51.18;100049.47;1706963;83;21089;-69
2022/03/07 07:40:05;;;;;;;13.87;10.57;;;;;;;1.32;50.98;100049.41;1706996;83;21599;-67
2022/03/07 07:42:33;;;;;;;18.17;14.33;;;;;;;1.36;50.70;100051.29;1701099;83;21669;-71
2022/03/07 07:45:01;;;;;;;12.77;9.50;;;;;;;1.36;50.69;100046.86;1655713;85;21126;-66
2022/03/07 07:47:28;;;;;;;13.27;10.30;;;;;;;1.35;50.67;100045.19;1685268;84;21071;-64
2022/03/07 07:49:54;;;;;;;;;;;;;;;1.33;50.60;100043.17;1688944;84;21114;-64
2022/03/07 07:54:56;;;;;;;21.67;16.27;;;;;;;1.32;51.00;100038.91;1822501;78;23009;-66
2022/03/07 07:57:23;;;;;;;19.65;15.00;;;;;;;1.34;51.13;100046.16;1723273;80;21093;-64
2022/03/07 07:59:49;;;;;;;16.67;13.08;;;;;;;1.47;50.90;100037.18;1722470;82;21023;-65
2022/03/07 08:02:17;;;;;;;16.90;12.00;;;;;;;1.54;50.82;100034.36;1694354;84;21078;-66
2022/03/07 08:04:44;;;;;;;17.63;10.37;;;;;;;1.63;50.48;100040.10;1682718;84;20987;-65
2022/03/07 08:07:11;;;;;;;13.68;10.43;;;;;;;1.70;50.33;100032.02;1690965;83;21451;-70
2022/03/07 08:09:38;;;;;;;;;;;;;;;1.80;49.90;100039.08;1684453;84;21085;-65
2022/03/07 08:12:05;;;;;;;11.87;8.83;;;;;;;1.82;49.84;100039.77;1679094;84;20389;-65
2022/03/07 08:14:36;;;;;;;10.87;9.43;;;;;;;1.87;49.78;100034.93;1693858;84;21069;-69
2022/03/07 08:17:04;;;;;;;;;;;;;;;1.90;49.74;100031.54;1702443;83;21063;-66
2022/03/07 08:19:32;;;;;;;12.00;8.40;;;;;;;1.94;49.52;100025.48;1681155;84;20142;-67
2022/03/07 08:21:59;;;;;;;12.57;9.60;;;;;;;1.92;49.72;100024.80;1672665;84;21346;-67
2022/03/07 08:24:25;;;;;;;9.93;7.85;;;;;;;1.98;49.57;100022.95;1668020;85;22195;-65
2022/03/07 08:26:54;;;;;;;11.97;9.17;;;;;;;2.05;49.42;100030.59;1655347;85;21650;-65
2022/03/07 08:29:21;;;;;;;12.43;10.20;;;;;;;2.01;48.71;100033.16;1672109;84;21541;-73
2022/03/07 08:31:47;;;;;;;11.63;10.38;;;;;;;1.90;48.87;100027.59;1666311;85;21033;-69
2022/03/07 08:34:15;;;;;;;13.27;10.23;;;;;;;1.89;49.13;100027.73;1665938;85;21013;-65
2022/03/07 08:36:41;;;;;;;15.20;10.20;;;;;;;1.92;48.85;100031.38;1657735;85;21016;-65
2022/03/07 08:39:08;;;;;;;10.70;9.55;;;;;;;1.92;48.69;100030.91;1671665;85;21089;-65
2022/03/07 08:41:35;;;;;;;12.25;9.50;;;;;;;1.88;48.78;100030.00;1673437;85;21055;-69
2022/03/07 08:44:02;;;;;;;10.70;8.98;;;;;;;1.88;48.67;100032.13;1679309;85;21053;-65
2022/03/07 08:46:29;;;;;;;11.03;9.73;;;;;;;1.87;48.72;100028.36;1679433;85;21535;-66
2022/03/07 08:48:56;;;;;;;10.00;8.98;;;;;;;1.88;48.51;100030.82;1659215;85;21101;-67
2022/03/07 08:51:24;;;;;;;8.87;7.80;;;;;;;1.83;48.46;100025.64;1664327;85;21002;-66
2022/03/07 08:53:51;;;;;;;9.83;8.47;;;;;;;1.84;48.89;100027.31;1681807;84;21141;-71
2022/03/07 08:56:18;;;;;;;10.25;8.55;;;;;;;1.83;48.86;100028.27;1646120;85;21101;-63
2022/03/07 08:58:44;;;;;;;10.00;7.50;;;;;;;1.86;48.79;100034.56;1698330;82;21496;-64
2022/03/07 09:01:11;;;;;;;11.30;7.85;;;;;;;1.86;48.86;100024.05;1687477;82;21488;-73
2022/03/07 09:03:38;;;;;;;9.50;6.97;;;;;;;1.94;48.84;100025.48;1673506;83;21113;-67
2022/03/07 09:06:06;;;;;;;8.67;7.20;;;;;;;2.00;48.47;100028.89;1672380;83;21081;-68
2022/03/07 09:08:33;;;;;;;13.27;8.13;;;;;;;2.09;48.26;100032.45;1674797;83;21038;-66
2022/03/07 09:11:02;;;;;;;8.53;6.53;;;;;;;2.09;48.07;100028.05;1700928;83;21070;-66
2022/03/07 09:13:29;;;;;;;9.23;7.80;;;;;;;2.12;48.06;100029.56;1673152;83;21097;-70
2022/03/07 09:15:55;;;;;;;;;;;;;;;2.19;48.17;100031.16;1645631;85;21030;-68
2022/03/07 09:18:25;;;;;;;10.37;6.47;;;;;;;2.27;47.58;100029.45;1641962;85;20163;-67
2022/03/07 09:20:52;;;;;;;8.90;6.70;;;;;;;2.28;47.77;100035.53;1673122;83;21093;-68
2022/03/07 09:23:19;;;;;;;7.83;6.40;;;;;;;2.31;47.45;100037.39;1647671;85;21026;-64
2022/03/07 09:25:45;;;;;;;10.10;6.73;;;;;;;2.31;47.49;100034.77;1662750;86;21107;-65
2022/03/07 09:28:12;;;;;;;10.10;7.65;;;;;;;2.30;47.72;100032.30;1676313;84;21030;-68
2022/03/07 09:30:39;;;;;;;10.87;7.40;;;;;;;2.27;47.59;100037.84;1674724;84;21561;-68
2022/03/07 09:33:06;;;;;;;7.07;6.30;;;;;;;2.25;47.54;100039.28;1675350;84;21059;-65
2022/03/07 09:35:34;;;;;;;15.28;8.65;;;;;;;2.27;47.50;100032.08;1693406;83;21557;-65
2022/03/07 09:38:01;;;;;;;9.77;6.07;;;;;;;2.32;47.15;100035.62;1693077;83;21176;-70
2022/03/07 09:40:28;;;;;;;9.78;6.53;;;;;;;2.33;47.14;100038.58;1693254;83;21010;-63
2022/03/07 09:42:54;;;;;;;9.87;8.17;;;;;;;2.40;47.13;100033.59;1693157;83;21541;-65
2022/03/07 09:45:22;;;;;;;7.73;6.93;;;;;;;2.44;46.46;100026.56;1694089;83;21032;-66
2022/03/07 09:47:50;;;;;;;11.00;6.47;;;;;;;2.45;45.32;100020.34;1611418;87;21127;-64
2022/03/07 09:50:17;;;;;;;10.43;6.60;;;;;;;2.46;45.73;100016.73;1616604;86;21044;-66
2022/03/07 09:52:48;;;;;;;8.00;7.20;;;;;;;2.56;45.65;100018.50;1619731;88;21549;-66
2022/03/07 09:55:17;;;;;;;8.77;7.57;;;;;;;2.67;46.94;100024.89;1688690;83;21172;-67
2022/03/07 09:57:45;;;;;;;9.97;7.43;;;;;;;2.92;45.03;100016.84;1675883;84;21106;-66
2022/03/07 10:00:17;;;;;;;9.83;8.00;;;;;;;3.00;45.04;100024.81;1674246;84;21038;-67
2022/03/07 10:03:02;;;;;;;9.47;7.67;;;;;;;3.05;44.14;100023.05;1700426;83;21051;-67
2022/03/07 10:05:34;;;;;;;8.37;7.40;;;;;;;3.06;44.36;100015.50;1693443;83;21030;-65
2022/03/07 10:08:01;;;;;;;10.73;8.10;;;;;;;3.04;44.71;100013.50;1668291;85;21509;-65
2022/03/07 10:10:35;;;;;;;12.47;9.13;;;;;;;3.11;44.48;100010.13;1694046;83;21092;-63
2022/03/07 10:13:09;;;;;;;9.37;6.40;;;;;;;3.14;44.26;100005.05;1666534;84;21535;-68
2022/03/07 10:15:38;;;;;;;7.60;6.13;;;;;;;3.12;44.06;100013.58;1666930;84;21588;-67
2022/03/07 10:18:17;;;;;;;5.93;4.57;;;;;;;3.08;44.35;100008.28;1666459;84;21024;-65
2022/03/07 10:20:56;;;;;;;5.53;4.47;;;;;;;3.02;44.37;100007.06;1667023;84;21392;-70
2022/03/07 10:23:28;;;;;;;3.90;3.57;;;;;;;3.02;44.75;100003.61;1648660;86;21067;-67
2022/03/07 10:25:54;;;;;;;4.30;3.90;;;;;;;3.00;44.90;99995.85;1639228;87;21086;-71
2022/03/07 10:28:20;;;;;;;4.97;3.97;;;;;;;3.06;45.36;99992.62;1637897;86;21066;-65
2022/03/07 10:30:48;;;;;;;6.30;4.97;;;;;;;3.06;44.69;99987.35;1668504;86;21060;-64
2022/03/07 10:33:15;;;;;;;4.17;3.80;;;;;;;3.02;44.61;99987.81;1669364;84;21126;-64
2022/03/07 10:35:49;;;;;;;;;;;;;;;2.99;45.18;99991.55;1686377;83;21579;-68
2022/03/07 10:38:21;;;;;;;5.70;3.40;;;;;;;2.90;45.79;99982.75;1685828;83;20163;-67
2022/03/07 10:40:53;;;;;;;5.50;3.60;;;;;;;2.70;45.84;99985.96;1709409;83;21543;-66
2022/03/07 10:43:21;;;;;;;4.37;3.97;;;;;;;2.54;46.33;99992.33;1691389;83;21083;-66
2022/03/07 10:45:58;;;;;;;3.70;3.40;;;;;;;2.53;46.65;99995.45;1666178;86;21117;-66
2022/03/07 10:48:30;;;;;;;7.22;4.67;;;;;;;2.53;46.87;99998.58;1664191;86;21015;-65
2022/03/07 10:50:59;;;;;;;6.23;4.70;;;;;;;2.41;46.68;99999.25;1658098;86;21075;-66
2022/03/07 10:53:28;;;;;;;5.43;3.63;;;;;;;2.22;46.76;99996.17;1698293;83;21082;-70
2022/03/07 10:55:58;;;;;;;6.17;3.97;;;;;;;2.09;46.37;99987.77;1696666;83;21066;-66
2022/03/07 10:58:26;;;;;;;10.07;4.97;;;;;;;1.94;46.13;99996.11;1682555;83;21024;-64
2022/03/07 11:01:01;;;;;;;6.70;4.50;;;;;;;1.91;46.69;99991.62;1691863;82;21129;-66
2022/03/07 11:03:31;;;;;;;8.80;5.77;;;;;;;1.93;46.92;99987.05;1690650;82;21560;-64
2022/03/07 11:06:01;;;;;;;4.87;4.40;;;;;;;2.03;47.52;99996.22;1717902;82;21001;-65
2022/03/07 11:08:30;;;;;;;8.07;5.50;;;;;;;2.12;47.49;99988.80;1716277;83;21700;-64
2022/03/07 11:11:01;;;;;;;6.80;5.20;;;;;;;2.18;47.29;99982.15;1727028;82;21014;-67
2022/03/07 11:13:30;;;;;;;8.13;5.23;;;;;;;2.19;47.02;99981.19;1736403;82;21116;-67
2022/03/07 11:16:01;;;;;;;8.87;5.57;;;;;;;2.20;47.12;99984.14;1710132;82;20995;-65
2022/03/07 11:18:30;;;;;;;4.60;4.20;;;;;;;2.20;46.89;99983.66;1685810;82;21014;-67
2022/03/07 11:20:59;;;;;;;4.80;4.40;;;;;;;2.18;47.13;99983.46;1660516;85;21055;-66
2022/03/07 11:23:26;;;;;;;6.03;5.10;;;;;;;2.09;46.44;99973.30;1699471;83;21066;-65
2022/03/07 11:25:57;;;;;;;8.47;4.33;;;;;;;2.00;46.59;99980.72;1676398;83;21657;-69
2022/03/07 11:28:27;;;;;;;8.03;5.07;;;;;;;1.97;46.92;99977.91;1684145;83;21044;-65
2022/03/07 11:30:54;;;;;;;6.07;4.40;;;;;;;1.98;46.74;99975.63;1690416;83;21019;-66
2022/03/07 11:33:33;;;;;;;;;;;;;;;1.94;46.60;99967.66;1684584;83;21125;-78
2022/03/07 11:35:54;;;;;;;6.60;4.43;;;;;;;1.87;46.71;99970.53;1699015;84;20115;-66
2022/03/07 11:38:26;;;;;;;8.43;4.87;;;;;;;1.75;47.32;99968.52;1698722;83;20999;-65
2022/03/07 11:41:01;;;;;;;9.73;5.43;;;;;;;1.82;47.44;99963.55;1699463;84;21117;-68